createdAt,value
2018-05-11T00:00:17.027Z,89.07
2018-05-11T00:01:17.124Z,89.93
2018-05-11T00:05:28.823Z,89.93
2018-05-11T00:06:27.640Z,89.93
2018-05-11T00:07:31.824Z,89.45
2018-05-11T00:15:10.151Z,88.88
2018-05-11T00:15:44.107Z,88.69
2018-05-11T00:16:42.496Z,88.88
2018-05-11T00:17:52.237Z,88.69
2018-05-11T00:18:45.118Z,88.78
2018-05-11T00:19:42.639Z,89.07
2018-05-11T00:20:42.727Z,88.21
2018-05-11T00:27:10.903Z,88.12
2018-05-11T00:28:10.783Z,88.31
2018-05-11T00:35:36.752Z,88.21
2018-05-11T00:37:04.500Z,87.83
2018-05-11T01:08:35.250Z,88.21
2018-05-11T02:14:27.458Z,91.22
2018-05-11T02:15:27.646Z,91.22
2018-05-11T03:56:11.361Z,89.36
2018-05-11T03:57:08.697Z,89.12
2018-05-11T03:58:08.859Z,89.89
2018-05-11T03:59:09.454Z,89.69
2018-05-11T04:00:11.459Z,90.36
2018-05-11T04:01:08.887Z,90.17
2018-05-11T04:33:56.604Z,89.83
2018-05-11T04:34:38.404Z,89.36
2018-05-11T04:35:38.349Z,88.98
2018-05-11T04:36:38.419Z,89.74
2018-05-11T04:37:38.579Z,89.17
2018-05-11T04:38:38.493Z,89.83
2018-05-11T04:39:38.306Z,90.22
2018-05-11T04:40:38.474Z,89.74
2018-05-11T04:41:38.467Z,89.07
2018-05-11T04:42:38.527Z,89.74
2018-05-11T04:43:38.491Z,89.83
2018-05-11T04:44:38.259Z,89.17
2018-05-11T04:45:51.138Z,89.45
2018-05-11T04:46:38.227Z,88.78
2018-05-11T04:47:38.197Z,88.78
2018-05-11T04:48:40.250Z,88.40
2018-05-11T04:49:38.185Z,88.40
2018-05-11T04:50:38.172Z,88.88
2018-05-11T04:51:38.172Z,88.69
2018-05-11T04:52:38.135Z,88.78
2018-05-11T04:53:38.154Z,88.83
2018-05-11T04:54:38.105Z,88.40
2018-05-11T04:55:38.097Z,88.02
2018-05-11T04:56:38.080Z,88.12
2018-05-11T04:57:38.113Z,88.02
2018-05-11T04:58:38.051Z,88.02
2018-05-11T04:59:38.045Z,88.31
2018-05-11T05:00:38.141Z,87.45
2018-05-11T05:01:38.045Z,87.83
2018-05-11T05:02:38.008Z,87.35
2018-05-11T05:03:38.003Z,87.54
2018-05-11T05:04:37.976Z,87.45
2018-05-11T05:05:37.974Z,87.68
2018-05-11T05:06:37.953Z,87.97
2018-05-11T05:07:37.942Z,87.49
2018-05-11T05:08:38.022Z,87.59
2018-05-11T05:09:37.928Z,87.49
2018-05-11T05:10:37.919Z,87.30
2018-05-11T05:11:37.904Z,87.40
2018-05-11T05:12:37.893Z,87.40
2018-05-11T05:13:37.876Z,87.40
2018-05-11T05:14:37.941Z,86.54
2018-05-11T05:15:37.853Z,86.92
2018-05-11T05:16:37.831Z,86.63
2018-05-11T05:17:37.828Z,86.92
2018-05-11T05:18:37.820Z,86.92
2018-05-11T05:19:37.796Z,86.82
2018-05-11T05:20:37.839Z,86.82
2018-05-11T05:21:37.789Z,86.73
2018-05-11T05:22:37.769Z,86.73
2018-05-11T05:23:37.760Z,86.82
2018-05-11T05:24:37.745Z,86.73
2018-05-11T05:25:37.734Z,86.82
2018-05-11T05:26:37.741Z,86.44
2018-05-11T05:27:37.709Z,86.54
2018-05-11T05:28:37.699Z,86.06
2018-05-11T05:29:38.114Z,85.58
2018-05-11T05:30:37.664Z,85.77
2018-05-11T05:31:37.655Z,85.97
2018-05-11T05:32:37.662Z,86.44
2018-05-11T05:33:37.646Z,86.73
2018-05-11T05:34:37.620Z,87.64
2018-05-11T05:35:37.612Z,87.64
2018-05-11T05:36:37.734Z,87.54
2018-05-11T05:37:37.592Z,87.83
2018-05-11T05:38:37.581Z,88.50
2018-05-11T05:39:37.564Z,88.12
2018-05-11T05:40:37.563Z,88.02
2018-05-11T05:41:37.543Z,88.98
2018-05-11T05:42:37.576Z,88.69
2018-05-11T05:43:37.518Z,88.78
2018-05-11T05:44:37.513Z,88.88
2018-05-11T05:45:37.487Z,88.98
2018-05-11T05:46:37.629Z,88.98
2018-05-11T05:47:37.472Z,88.88
2018-05-11T05:48:37.470Z,88.59
2018-05-11T05:49:37.446Z,89.21
2018-05-11T05:50:37.436Z,89.02
2018-05-11T05:51:37.418Z,88.21
2018-05-11T05:52:37.443Z,87.35
2018-05-11T05:53:37.402Z,87.59
2018-05-11T05:54:37.395Z,87.45
2018-05-11T05:55:37.370Z,88.26
2018-05-11T05:56:37.577Z,88.31
2018-05-11T05:57:37.486Z,88.12
2018-05-11T05:58:37.332Z,87.83
2018-05-11T05:59:37.331Z,88.40
2018-05-11T06:00:37.317Z,89.12
2018-05-11T06:01:37.306Z,88.83
2018-05-11T06:02:37.289Z,88.35
2018-05-11T06:03:37.348Z,88.07
2018-05-11T06:04:37.355Z,88.45
2018-05-11T06:05:37.257Z,88.07
2018-05-11T06:06:37.249Z,88.07
2018-05-11T06:07:37.236Z,88.07
2018-05-11T06:08:37.216Z,88.07
2018-05-11T06:09:37.230Z,87.78
2018-05-11T06:10:37.200Z,88.16
2018-05-11T06:11:37.230Z,88.16
2018-05-11T06:12:37.174Z,88.07
2018-05-11T06:13:37.195Z,88.16
2018-05-11T06:14:37.151Z,88.68
2018-05-11T06:15:37.225Z,88.01
2018-05-11T06:16:37.155Z,87.44
2018-05-11T06:17:37.171Z,87.25
2018-05-11T06:18:37.095Z,86.77
2018-05-11T06:19:37.093Z,86.68
2018-05-11T06:20:37.084Z,86.77
2018-05-11T06:21:37.140Z,86.77
2018-05-11T06:22:37.060Z,84.86
2018-05-11T06:23:37.057Z,84.58
2018-05-11T06:24:37.034Z,84.67
2018-05-11T06:25:37.027Z,84.48
2018-05-11T06:26:37.019Z,84.58
2018-05-11T06:27:37.024Z,84.48
2018-05-11T06:28:36.988Z,84.67
2018-05-11T06:29:36.991Z,84.39
2018-05-11T06:30:36.966Z,84.77
2018-05-11T06:31:36.958Z,84.86
2018-05-11T06:32:37.084Z,84.91
2018-05-11T06:33:36.929Z,84.43
2018-05-11T06:34:37.016Z,84.91
2018-05-11T06:35:36.912Z,85.10
2018-05-11T06:36:36.897Z,84.23
2018-05-11T06:37:36.891Z,83.95
2018-05-11T06:38:36.917Z,84.05
2018-05-11T06:39:36.869Z,83.33
2018-05-11T06:40:36.897Z,83.13
2018-05-11T06:41:36.849Z,81.60
2018-05-11T06:42:36.830Z,80.46
2018-05-11T06:43:36.845Z,80.27
2018-05-11T06:44:36.825Z,80.61
2018-05-11T06:45:36.808Z,80.84
2018-05-11T06:46:36.796Z,81.13
2018-05-11T06:47:36.793Z,80.84
2018-05-11T06:48:36.987Z,80.84
2018-05-11T06:49:36.765Z,80.46
2018-05-11T06:50:36.754Z,80.46
2018-05-11T06:51:36.753Z,80.27
2018-05-11T06:52:36.733Z,79.12
2018-05-11T06:53:36.721Z,79.02
2018-05-11T06:54:36.716Z,79.31
2018-05-11T06:55:36.702Z,79.60
2018-05-11T06:56:36.692Z,79.69
2018-05-11T06:57:36.671Z,79.02
2018-05-11T06:58:36.675Z,78.64
2018-05-11T06:59:36.695Z,79.02
2018-05-11T07:00:36.651Z,79.02
2018-05-11T07:01:36.703Z,79.31
2018-05-11T07:02:36.621Z,79.12
2018-05-11T07:03:36.651Z,78.93
2018-05-11T07:04:36.623Z,78.26
2018-05-11T07:05:36.599Z,78.07
2018-05-11T07:06:36.592Z,78.07
2018-05-11T07:07:36.583Z,77.50
2018-05-11T07:08:36.577Z,77.59
2018-05-11T07:09:36.605Z,77.40
2018-05-11T07:10:36.559Z,77.30
2018-05-11T07:11:36.539Z,77.69
2018-05-11T07:12:36.535Z,77.69
2018-05-11T07:13:36.526Z,77.69
2018-05-11T07:14:36.523Z,77.78
2018-05-11T07:15:36.537Z,78.39
2018-05-11T07:16:36.485Z,77.63
2018-05-11T07:17:36.480Z,78.49
2018-05-11T07:18:36.471Z,78.20
2018-05-11T07:19:36.465Z,77.92
2018-05-11T07:20:36.474Z,77.44
2018-05-11T07:21:36.450Z,77.34
2018-05-11T07:22:36.435Z,76.77
2018-05-11T07:23:36.418Z,76.86
2018-05-11T07:24:36.401Z,76.00
2018-05-11T07:25:36.449Z,75.52
2018-05-11T07:26:36.407Z,75.52
2018-05-11T07:27:36.383Z,75.91
2018-05-11T07:28:36.804Z,75.71
2018-05-11T07:29:36.373Z,76.00
2018-05-11T07:30:36.355Z,76.29
2018-05-11T07:31:36.335Z,76.10
2018-05-11T07:32:36.336Z,76.10
2018-05-11T07:33:36.330Z,75.62
2018-05-11T07:34:36.317Z,76.00
2018-05-11T07:35:36.320Z,75.34
2018-05-11T07:36:36.297Z,75.05
2018-05-11T07:37:36.308Z,75.14
2018-05-11T07:38:36.279Z,75.62
2018-05-11T07:39:36.296Z,75.43
2018-05-11T07:40:36.255Z,75.43
2018-05-11T07:41:36.239Z,75.34
2018-05-11T07:42:36.240Z,76.20
2018-05-11T07:43:36.218Z,75.62
2018-05-11T07:44:36.273Z,75.71
2018-05-11T07:45:36.206Z,75.81
2018-05-11T07:46:36.191Z,75.71
2018-05-11T07:47:36.198Z,75.81
2018-05-11T07:48:36.174Z,75.81
2018-05-11T07:49:36.182Z,76.00
2018-05-11T07:50:36.184Z,75.81
2018-05-11T07:51:36.160Z,75.05
2018-05-11T07:52:36.141Z,75.14
2018-05-11T07:53:36.123Z,75.34
2018-05-11T07:54:36.121Z,75.34
2018-05-11T07:55:36.165Z,75.66
2018-05-11T07:56:36.106Z,75.09
2018-05-11T07:57:36.091Z,75.47
2018-05-11T07:58:36.091Z,75.66
2018-05-11T07:59:36.062Z,75.27
2018-05-11T08:00:36.065Z,75.27
2018-05-11T08:01:36.061Z,75.27
2018-05-11T08:02:36.045Z,75.47
2018-05-11T08:03:36.028Z,75.09
2018-05-11T08:04:36.022Z,75.09
2018-05-11T08:05:36.017Z,75.27
2018-05-11T08:06:36.034Z,75.37
2018-05-11T08:07:36.022Z,75.37
2018-05-11T08:08:35.999Z,74.51
2018-05-11T08:09:35.980Z,74.70
2018-05-11T08:10:35.969Z,75.18
2018-05-11T08:11:35.963Z,75.27
2018-05-11T08:12:35.957Z,75.18
2018-05-11T08:13:35.948Z,74.80
2018-05-11T08:14:36.037Z,73.27
2018-05-11T08:15:35.915Z,73.94
2018-05-11T08:16:35.912Z,74.13
2018-05-11T08:17:35.906Z,74.41
2018-05-11T08:18:35.931Z,74.22
2018-05-11T08:19:35.894Z,74.13
2018-05-11T08:20:35.873Z,74.13
2018-05-11T08:21:35.868Z,74.51
2018-05-11T08:22:35.893Z,74.51
2018-05-11T08:23:35.850Z,74.26
2018-05-11T08:24:35.840Z,74.36
2018-05-11T08:25:35.829Z,74.41
2018-05-11T08:26:35.854Z,74.32
2018-05-11T08:27:35.848Z,74.45
2018-05-11T08:28:35.801Z,74.36
2018-05-11T08:29:35.796Z,74.26
2018-05-11T08:30:35.788Z,74.36
2018-05-11T08:31:35.778Z,74.26
2018-05-11T08:32:35.803Z,73.97
2018-05-11T08:33:35.764Z,74.07
2018-05-11T08:34:35.758Z,73.50
2018-05-11T08:35:35.739Z,73.79
2018-05-11T08:36:35.739Z,73.59
2018-05-11T08:37:35.879Z,73.69
2018-05-11T08:38:35.712Z,73.69
2018-05-11T08:39:35.707Z,73.79
2018-05-11T08:40:35.692Z,73.79
2018-05-11T08:41:35.693Z,72.92
2018-05-11T08:42:35.669Z,73.30
2018-05-11T08:43:35.741Z,73.21
2018-05-11T08:44:35.657Z,73.21
2018-05-11T08:45:35.654Z,72.83
2018-05-11T08:46:35.641Z,72.63
2018-05-11T08:47:35.640Z,72.83
2018-05-11T08:48:35.639Z,72.25
2018-05-11T08:49:35.691Z,72.44
2018-05-11T08:50:35.604Z,72.54
2018-05-11T08:51:35.609Z,73.79
2018-05-11T08:52:35.580Z,73.88
2018-05-11T08:53:35.583Z,74.07
2018-05-11T08:54:35.571Z,73.69
2018-05-11T08:55:35.569Z,74.07
2018-05-11T08:56:35.554Z,73.63
2018-05-11T08:57:35.564Z,73.34
2018-05-11T08:58:35.551Z,73.44
2018-05-11T08:59:35.535Z,72.86
2018-05-11T09:00:35.696Z,72.38
2018-05-11T09:01:35.547Z,72.96
2018-05-11T09:02:35.509Z,72.19
2018-05-11T09:03:35.510Z,71.81
2018-05-11T09:04:35.490Z,71.52
2018-05-11T09:05:35.484Z,70.89
2018-05-11T09:06:35.843Z,70.95
2018-05-11T09:07:35.462Z,71.14
2018-05-11T09:08:35.498Z,70.76
2018-05-11T09:09:35.461Z,69.80
2018-05-11T09:10:35.445Z,70.76
2018-05-11T09:11:35.431Z,70.37
2018-05-11T09:12:35.444Z,70.28
2018-05-11T09:13:35.429Z,70.66
2018-05-11T09:14:35.411Z,70.56
2018-05-11T09:15:35.407Z,70.47
2018-05-11T09:16:35.397Z,70.47
2018-05-11T09:17:35.415Z,70.47
2018-05-11T09:18:35.379Z,70.18
2018-05-11T09:19:35.377Z,70.95
2018-05-11T09:20:35.372Z,70.28
2018-05-11T09:21:35.356Z,69.51
2018-05-11T09:22:35.362Z,69.42
2018-05-11T09:23:35.368Z,70.47
2018-05-11T09:24:35.338Z,70.47
2018-05-11T09:25:35.327Z,70.56
2018-05-11T09:26:35.776Z,70.95
2018-05-11T09:27:35.316Z,69.80
2018-05-11T09:28:35.298Z,70.28
2018-05-11T09:29:35.287Z,70.31
2018-05-11T09:30:35.281Z,70.47
2018-05-11T09:31:35.282Z,69.35
2018-05-11T09:32:35.275Z,69.03
2018-05-11T09:33:35.266Z,68.46
2018-05-11T09:34:35.248Z,67.79
2018-05-11T09:35:35.278Z,68.17
2018-05-11T09:36:35.271Z,68.07
2018-05-11T09:37:35.223Z,68.17
2018-05-11T09:38:35.235Z,68.65
2018-05-11T09:39:35.244Z,68.87
2018-05-11T09:40:35.206Z,69.35
2018-05-11T09:41:35.229Z,69.26
2018-05-11T09:42:36.162Z,68.59
2018-05-11T09:43:35.178Z,67.34
2018-05-11T09:44:35.174Z,66.54
2018-05-11T09:45:35.208Z,66.35
2018-05-11T09:46:35.243Z,67.11
2018-05-11T09:47:35.148Z,67.41
2018-05-11T09:48:35.298Z,68.07
2018-05-11T09:49:35.257Z,68.46
2018-05-11T09:50:35.161Z,68.17
2018-05-11T09:51:35.118Z,68.84
2018-05-11T09:52:35.110Z,69.60
2018-05-11T09:53:35.128Z,69.60
2018-05-11T09:54:35.096Z,69.32
2018-05-11T09:55:35.093Z,69.64
2018-05-11T09:56:35.107Z,69.54
2018-05-11T09:57:35.069Z,69.35
2018-05-11T09:58:35.069Z,68.68
2018-05-11T09:59:35.071Z,68.59
2018-05-11T10:00:35.059Z,68.49
2018-05-11T10:01:35.084Z,67.82
2018-05-11T10:02:35.222Z,67.63
2018-05-11T10:03:35.025Z,65.81
2018-05-11T10:04:35.021Z,66.48
2018-05-11T10:05:35.024Z,67.34
2018-05-11T10:06:35.015Z,68.01
2018-05-11T10:07:35.037Z,68.30
2018-05-11T10:08:34.995Z,68.68
2018-05-11T10:09:34.986Z,68.11
2018-05-11T10:10:34.987Z,66.61
2018-05-11T10:11:34.972Z,66.51
2018-05-11T10:12:36.700Z,64.50
2018-05-11T10:13:35.259Z,66.51
2018-05-11T10:14:34.961Z,67.12
2018-05-11T10:15:35.346Z,67.50
2018-05-11T10:16:34.955Z,66.77
2018-05-11T10:17:34.952Z,63.79
2018-05-11T10:18:34.930Z,63.76
2018-05-11T10:19:34.955Z,62.84
2018-05-11T10:20:34.944Z,62.52
2018-05-11T10:21:34.931Z,62.84
2018-05-11T10:22:34.920Z,63.22
2018-05-11T10:23:34.917Z,61.98
2018-05-11T10:24:35.225Z,61.11
2018-05-11T10:25:34.929Z,61.94
2018-05-11T10:26:34.904Z,62.65
2018-05-11T10:27:34.905Z,63.32
2018-05-11T10:28:34.900Z,64.31
2018-05-11T10:29:34.901Z,63.73
2018-05-11T10:30:35.213Z,64.05
2018-05-11T10:31:37.702Z,63.28
2018-05-11T10:32:35.695Z,60.82
2018-05-11T10:33:34.877Z,58.80
2018-05-11T10:34:34.932Z,59.57
2018-05-11T10:35:34.942Z,60.82
2018-05-11T10:36:34.885Z,60.75
2018-05-11T10:37:34.875Z,60.37
2018-05-11T10:38:34.888Z,59.79
2018-05-11T10:39:34.888Z,58.64
2018-05-11T10:40:34.874Z,58.73
2018-05-11T10:41:34.867Z,58.73
2018-05-11T10:42:34.869Z,58.64
2018-05-11T10:43:34.865Z,59.12
2018-05-11T10:44:34.856Z,58.64
2018-05-11T10:45:34.856Z,58.92
2018-05-11T10:46:35.270Z,58.45
2018-05-11T10:47:34.852Z,58.70
2018-05-11T10:48:34.891Z,59.50
2018-05-11T10:49:34.850Z,59.76
2018-05-11T10:50:34.840Z,58.80
2018-05-11T10:51:34.843Z,58.80
2018-05-11T10:52:34.880Z,59.38
2018-05-11T10:53:34.837Z,59.28
2018-05-11T10:54:34.863Z,59.57
2018-05-11T10:55:34.828Z,59.76
2018-05-11T10:56:34.831Z,58.89
2018-05-11T10:57:34.832Z,59.86
2018-05-11T10:58:35.026Z,58.87
2018-05-11T10:59:34.813Z,58.77
2018-05-11T11:00:34.954Z,58.77
2018-05-11T11:01:34.800Z,59.73
2018-05-11T11:02:34.796Z,60.02
2018-05-11T11:03:34.794Z,59.44
2018-05-11T11:04:34.784Z,60.02
2018-05-11T11:05:34.784Z,60.11
2018-05-11T11:06:34.809Z,59.73
2018-05-11T11:07:34.783Z,59.92
2018-05-11T11:08:34.769Z,60.02
2018-05-11T11:09:34.753Z,60.02
2018-05-11T11:10:34.758Z,59.92
2018-05-11T11:11:34.746Z,59.73
2018-05-11T11:12:34.830Z,60.11
2018-05-11T11:13:34.748Z,60.02
2018-05-11T11:14:34.806Z,60.11
2018-05-11T11:15:34.735Z,59.51
2018-05-11T11:16:34.731Z,59.44
2018-05-11T11:17:34.723Z,59.73
2018-05-11T11:18:34.721Z,60.08
2018-05-11T11:19:34.718Z,60.08
2018-05-11T11:20:34.702Z,59.99
2018-05-11T11:21:34.700Z,59.32
2018-05-11T11:22:34.747Z,59.61
2018-05-11T11:23:34.702Z,59.89
2018-05-11T11:24:34.688Z,60.08
2018-05-11T11:25:34.675Z,60.38
2018-05-11T11:26:34.666Z,61.33
2018-05-11T11:27:34.740Z,62.42
2018-05-11T11:28:34.662Z,60.82
2018-05-11T11:29:34.654Z,57.75
2018-05-11T11:30:34.654Z,56.49
2018-05-11T11:31:34.650Z,56.49
2018-05-11T11:32:34.645Z,57.39
2018-05-11T11:33:34.639Z,57.29
2018-05-11T11:34:34.718Z,56.88
2018-05-11T11:35:34.766Z,57.26
2018-05-11T11:36:34.627Z,57.39
2018-05-11T11:37:34.627Z,54.99
2018-05-11T11:38:34.619Z,54.89
2018-05-11T11:39:34.606Z,55.66
2018-05-11T11:40:34.605Z,56.16
2018-05-11T11:41:34.683Z,56.07
2018-05-11T11:42:34.605Z,56.26
2018-05-11T11:43:34.626Z,57.06
2018-05-11T11:44:34.629Z,57.06
2018-05-11T11:45:34.604Z,55.04
2018-05-11T11:46:34.597Z,52.34
2018-05-11T11:47:34.617Z,52.12
2018-05-11T11:48:34.582Z,53.19
2018-05-11T11:49:34.593Z,54.34
2018-05-11T11:50:34.572Z,54.53
2018-05-11T11:51:34.576Z,55.20
2018-05-11T11:52:34.580Z,55.20
2018-05-11T11:53:34.569Z,55.20
2018-05-11T11:54:34.575Z,55.20
2018-05-11T11:55:34.560Z,55.27
2018-05-11T11:56:34.734Z,54.79
2018-05-11T11:57:34.587Z,53.83
2018-05-11T11:58:34.589Z,54.41
2018-05-11T11:59:34.554Z,55.27
2018-05-11T12:00:34.554Z,55.34
2018-05-11T12:01:34.585Z,54.77
2018-05-11T12:02:37.683Z,55.24
2018-05-11T12:03:34.628Z,55.82
2018-05-11T12:04:34.528Z,55.73
2018-05-11T12:05:34.536Z,56.40
2018-05-11T12:06:34.530Z,56.78
2018-05-11T12:07:34.542Z,56.88
2018-05-11T12:08:34.667Z,56.40
2018-05-11T12:09:34.512Z,56.01
2018-05-11T12:10:34.934Z,56.11
2018-05-11T12:11:34.507Z,56.49
2018-05-11T12:12:34.496Z,56.88
2018-05-11T12:13:34.664Z,56.78
2018-05-11T12:14:34.492Z,56.98
2018-05-11T12:15:34.483Z,56.98
2018-05-11T12:16:34.470Z,57.17
2018-05-11T12:17:34.482Z,56.88
2018-05-11T12:18:34.471Z,56.98
2018-05-11T12:19:34.624Z,56.78
2018-05-11T12:20:34.458Z,56.88
2018-05-11T12:21:34.447Z,56.59
2018-05-11T12:22:34.494Z,56.11
2018-05-11T12:23:34.528Z,56.30
2018-05-11T12:24:34.428Z,56.78
2018-05-11T12:25:34.427Z,56.78
2018-05-11T12:26:34.433Z,56.98
2018-05-11T12:27:34.451Z,57.07
2018-05-11T12:28:34.409Z,57.93
2018-05-11T12:29:34.420Z,57.45
2018-05-11T12:30:34.407Z,55.53
2018-05-11T12:31:34.403Z,56.76
2018-05-11T12:32:34.414Z,56.76
2018-05-11T12:33:34.404Z,56.85
2018-05-11T12:34:34.402Z,57.33
2018-05-11T12:35:34.385Z,57.81
2018-05-11T12:36:34.370Z,57.23
2018-05-11T12:37:34.369Z,56.85
2018-05-11T12:38:34.366Z,57.14
2018-05-11T12:39:34.382Z,56.85
2018-05-11T12:40:34.444Z,57.11
2018-05-11T12:41:34.343Z,56.92
2018-05-11T12:42:34.339Z,56.73
2018-05-11T12:43:34.327Z,57.01
2018-05-11T12:44:34.329Z,57.71
2018-05-11T12:45:34.386Z,58.00
2018-05-11T12:46:34.320Z,57.23
2018-05-11T12:47:34.717Z,58.10
2018-05-11T12:48:34.294Z,58.03
2018-05-11T12:49:34.342Z,57.55
2018-05-11T12:50:34.285Z,57.45
2018-05-11T12:51:34.333Z,57.39
2018-05-11T12:52:34.292Z,57.20
2018-05-11T12:53:34.808Z,56.91
2018-05-11T12:54:34.277Z,56.91
2018-05-11T12:55:34.261Z,56.91
2018-05-11T12:56:34.263Z,56.43
2018-05-11T12:57:34.297Z,54.99
2018-05-11T12:58:34.344Z,55.18
2018-05-11T12:59:34.236Z,55.01
2018-05-11T13:00:34.236Z,54.79
2018-05-11T13:01:34.233Z,55.11
2018-05-11T13:02:34.225Z,54.82
2018-05-11T13:03:34.525Z,54.82
2018-05-11T13:04:34.219Z,55.11
2018-05-11T13:05:34.275Z,54.43
2018-05-11T13:06:34.201Z,52.61
2018-05-11T13:07:34.202Z,53.06
2018-05-11T13:08:34.198Z,53.74
2018-05-11T13:09:34.332Z,54.02
2018-05-11T13:10:34.193Z,54.02
2018-05-11T13:11:34.180Z,53.92
2018-05-11T13:12:34.259Z,53.06
2018-05-11T13:13:34.179Z,52.20
2018-05-11T13:14:35.419Z,51.98
2018-05-11T13:15:34.168Z,52.94
2018-05-11T13:16:34.160Z,53.32
2018-05-11T13:17:34.776Z,54.28
2018-05-11T13:18:34.154Z,54.67
2018-05-11T13:19:34.143Z,54.96
2018-05-11T13:20:34.567Z,55.53
2018-05-11T13:21:34.133Z,55.53
2018-05-11T13:22:34.129Z,55.63
2018-05-11T13:23:34.120Z,55.53
2018-05-11T13:24:34.205Z,55.34
2018-05-11T13:25:34.195Z,54.57
2018-05-11T13:26:34.176Z,54.38
2018-05-11T13:27:34.089Z,54.96
2018-05-11T13:28:34.089Z,55.15
2018-05-11T13:29:34.090Z,54.28
2018-05-11T13:30:34.245Z,54.77
2018-05-11T13:31:34.083Z,54.96
2018-05-11T13:32:34.221Z,54.96
2018-05-11T13:33:34.058Z,54.96
2018-05-11T13:34:34.054Z,55.60
2018-05-11T13:35:34.288Z,55.60
2018-05-11T13:36:34.042Z,55.69
2018-05-11T13:37:34.053Z,55.99
2018-05-11T13:38:34.042Z,56.37
2018-05-11T13:39:34.024Z,56.95
2018-05-11T13:40:34.028Z,56.85
2018-05-11T13:41:34.009Z,56.76
2018-05-11T13:42:34.013Z,55.79
2018-05-11T13:43:34.145Z,54.55
2018-05-11T13:44:33.991Z,54.25
2018-05-11T13:45:33.991Z,53.97
2018-05-11T13:46:33.988Z,54.16
2018-05-11T13:47:33.972Z,53.68
2018-05-11T13:48:34.164Z,53.94
2018-05-11T13:49:33.998Z,53.94
2018-05-11T13:50:33.960Z,53.66
2018-05-11T13:51:33.956Z,53.56
2018-05-11T13:52:33.947Z,54.33
2018-05-11T13:53:33.957Z,55.00
2018-05-11T13:54:33.967Z,55.57
2018-05-11T13:55:33.922Z,54.16
2018-05-11T13:56:34.010Z,54.25
2018-05-11T13:57:33.922Z,55.32
2018-05-11T13:58:33.936Z,55.41
2018-05-11T13:59:34.053Z,55.63
2018-05-11T14:00:33.905Z,56.01
2018-05-11T14:01:33.890Z,55.73
2018-05-11T14:02:33.897Z,55.15
2018-05-11T14:03:33.983Z,55.34
2018-05-11T14:04:33.897Z,55.27
2018-05-11T14:05:33.884Z,54.89
2018-05-11T14:06:33.871Z,55.08
2018-05-11T14:07:33.858Z,55.15
2018-05-11T14:08:33.848Z,55.37
2018-05-11T14:09:34.600Z,55.05
2018-05-11T14:10:33.892Z,54.86
2018-05-11T14:11:33.843Z,55.53
2018-05-11T14:12:33.981Z,56.11
2018-05-11T14:13:33.952Z,56.01
2018-05-11T14:14:33.817Z,56.11
2018-05-11T14:15:33.811Z,56.21
2018-05-11T14:16:33.808Z,55.73
2018-05-11T14:17:33.796Z,55.82
2018-05-11T14:18:33.805Z,56.11
2018-05-11T14:19:33.820Z,55.91
2018-05-11T14:20:33.779Z,56.01
2018-05-11T14:21:33.832Z,55.73
2018-05-11T14:22:33.775Z,55.63
2018-05-11T14:23:33.763Z,56.11
2018-05-11T14:24:33.761Z,56.11
2018-05-11T14:25:33.749Z,56.49
2018-05-11T14:26:33.758Z,56.30
2018-05-11T14:27:33.775Z,56.40
2018-05-11T14:28:33.735Z,56.78
2018-05-11T14:29:33.847Z,56.88
2018-05-11T14:30:33.749Z,56.49
2018-05-11T14:31:33.733Z,56.91
2018-05-11T14:32:33.746Z,55.66
2018-05-11T14:33:33.844Z,55.46
2018-05-11T14:34:33.705Z,54.69
2018-05-11T14:35:33.704Z,54.12
2018-05-11T14:36:33.698Z,54.12
2018-05-11T14:37:34.430Z,52.97
2018-05-11T14:38:34.442Z,53.35
2018-05-11T14:39:33.989Z,53.06
2018-05-11T14:40:33.669Z,54.22
2018-05-11T14:41:33.661Z,54.22
2018-05-11T14:42:33.664Z,53.45
2018-05-11T14:43:33.661Z,54.22
2018-05-11T14:44:33.659Z,53.80
2018-05-11T14:45:33.641Z,52.84
2018-05-11T14:46:33.636Z,53.52
2018-05-11T14:47:33.630Z,54.38
2018-05-11T14:48:33.616Z,54.38
2018-05-11T14:49:33.651Z,53.74
2018-05-11T14:50:33.614Z,52.87
2018-05-11T14:51:33.598Z,53.74
2018-05-11T14:52:33.598Z,53.28
2018-05-11T14:53:33.728Z,51.67
2018-05-11T14:54:33.592Z,50.71
2018-05-11T14:55:33.585Z,50.42
2018-05-11T14:56:33.573Z,50.25
2018-05-11T14:57:33.574Z,49.96
2018-05-11T14:58:33.578Z,49.32
2018-05-11T14:59:33.716Z,49.91
2018-05-11T15:00:33.567Z,49.24
2018-05-11T15:01:33.562Z,48.08
2018-05-11T15:02:33.568Z,47.34
2018-05-11T15:03:33.551Z,46.35
2018-05-11T15:04:33.560Z,46.93
2018-05-11T15:05:33.561Z,48.18
2018-05-11T15:06:33.558Z,48.66
2018-05-11T15:07:33.545Z,48.74
2018-05-11T15:08:33.547Z,49.32
2018-05-11T15:09:33.568Z,48.74
2018-05-11T15:10:33.558Z,49.12
2018-05-11T15:11:33.536Z,49.89
2018-05-11T15:12:33.549Z,49.96
2018-05-11T15:13:33.529Z,50.35
2018-05-11T15:14:33.522Z,50.18
2018-05-11T15:15:33.650Z,50.73
2018-05-11T15:16:33.515Z,51.41
2018-05-11T15:17:33.514Z,50.95
2018-05-11T15:18:33.513Z,51.62
2018-05-11T15:19:33.532Z,50.95
2018-05-11T15:20:33.501Z,51.05
2018-05-11T15:21:33.879Z,50.95
2018-05-11T15:22:33.489Z,51.05
2018-05-11T15:23:33.508Z,51.05
2018-05-11T15:24:33.497Z,51.34
2018-05-11T15:25:33.497Z,51.34
2018-05-11T15:26:33.481Z,50.85
2018-05-11T15:27:33.485Z,50.66
2018-05-11T15:28:33.464Z,50.35
2018-05-11T15:29:33.472Z,49.87
2018-05-11T15:30:33.463Z,48.90
2018-05-11T15:31:33.462Z,48.03
2018-05-11T15:32:33.489Z,48.23
2018-05-11T15:33:33.453Z,48.33
2018-05-11T15:34:33.442Z,48.81
2018-05-11T15:35:33.453Z,48.71
2018-05-11T15:36:33.444Z,48.43
2018-05-11T15:37:33.885Z,48.43
2018-05-11T15:38:33.436Z,48.90
2018-05-11T15:39:33.426Z,48.33
2018-05-11T15:40:33.494Z,48.23
2018-05-11T15:41:33.420Z,48.52
2018-05-11T15:42:33.408Z,48.52
2018-05-11T15:43:33.433Z,48.03
2018-05-11T15:44:33.408Z,48.52
2018-05-11T15:45:33.404Z,49.10
2018-05-11T15:46:33.394Z,49.10
2018-05-11T15:47:33.395Z,49.68
2018-05-11T15:48:33.511Z,49.48
2018-05-11T15:49:33.390Z,49.38
2018-05-11T15:50:33.379Z,49.12
2018-05-11T15:51:33.378Z,49.32
2018-05-11T15:52:33.372Z,49.70
2018-05-11T15:53:33.366Z,49.70
2018-05-11T15:54:33.357Z,49.89
2018-05-11T15:55:33.397Z,48.93
2018-05-11T15:56:33.355Z,48.03
2018-05-11T15:57:33.357Z,48.52
2018-05-11T15:58:33.365Z,48.81
2018-05-11T15:59:33.387Z,49.19
2018-05-11T16:00:33.328Z,48.90
2018-05-11T16:01:33.483Z,48.97
2018-05-11T16:02:33.328Z,50.06
2018-05-11T16:03:33.329Z,50.04
2018-05-11T16:04:33.310Z,50.15
2018-05-11T16:05:33.341Z,49.58
2018-05-11T16:06:33.419Z,49.10
2018-05-11T16:07:33.298Z,49.38
2018-05-11T16:08:33.299Z,49.38
2018-05-11T16:09:33.292Z,49.38
2018-05-11T16:10:33.881Z,49.00
2018-05-11T16:11:33.270Z,49.46
2018-05-11T16:12:33.322Z,49.68
2018-05-11T16:13:33.271Z,49.77
2018-05-11T16:14:34.548Z,49.87
2018-05-11T16:15:33.258Z,49.87
2018-05-11T16:16:33.266Z,49.19
2018-05-11T16:17:33.298Z,49.00
2018-05-11T16:18:33.260Z,49.29
2018-05-11T16:19:33.258Z,49.10
2018-05-11T16:20:33.331Z,49.19
2018-05-11T16:21:33.857Z,49.38
2018-05-11T16:22:33.264Z,49.87
2018-05-11T16:23:33.241Z,50.06
2018-05-11T16:24:33.217Z,49.96
2018-05-11T16:25:33.284Z,50.25
2018-05-11T16:26:33.210Z,49.10
2018-05-11T16:27:33.193Z,48.81
2018-05-11T16:28:33.205Z,48.79
2018-05-11T16:29:33.196Z,48.61
2018-05-11T16:30:33.196Z,48.43
2018-05-11T16:31:33.241Z,48.71
2018-05-11T16:32:33.262Z,48.23
2018-05-11T16:33:33.891Z,48.61
2018-05-11T16:34:33.920Z,48.43
2018-05-11T16:35:33.193Z,48.90
2018-05-11T16:36:33.875Z,48.61
2018-05-11T16:37:33.191Z,48.69
2018-05-11T16:38:33.151Z,49.17
2018-05-11T16:39:33.142Z,49.07
2018-05-11T16:40:33.184Z,48.97
2018-05-11T16:41:33.139Z,49.55
2018-05-11T16:42:34.499Z,49.65
2018-05-11T16:43:33.132Z,50.23
2018-05-11T16:44:33.365Z,50.23
2018-05-11T16:45:33.194Z,50.32
2018-05-11T16:46:34.458Z,50.23
2018-05-11T16:47:33.123Z,50.23
2018-05-11T16:48:33.117Z,50.42
2018-05-11T16:49:33.107Z,50.42
2018-05-11T16:50:33.260Z,50.90
2018-05-11T16:51:33.101Z,50.32
2018-05-11T16:52:33.082Z,50.99
2018-05-11T16:53:33.123Z,50.87
2018-05-11T16:54:33.225Z,51.48
2018-05-11T16:55:33.073Z,50.32
2018-05-11T16:56:33.108Z,50.04
2018-05-11T16:57:33.049Z,50.10
2018-05-11T16:58:33.061Z,50.49
2018-05-11T16:59:33.034Z,50.49
2018-05-11T17:00:33.051Z,50.78